Kezdőlap
METAR-TAF:

METAR-TAF

Repülőterek :

Merrill Municipal Airport

Merrill, Wisconsin, Amerikai Egyesült Államok

földrajzi szélesség: 45-11N, földrajzi hosszúság: 089-42W, magasság: 401 m

Jelenlegi meteorológiai megfigyelések

A jelentés 33 perccel ezelõtt készült, 17:15 UTC
Északi szél 8 kt
Hőmérséklet 13°C
Páratartalom 77%
Légköri nyomás 1016 hPa
Látótávolság: 16.1 km
Borult 5000 lábon

METAR: KRRL 281715Z AUTO 35008KT 10SM OVC050 13/09 A3001 RMK AO2 T01280086 TSNO

Idő: 12:48 (17:48 UTC)


TAF: hiányzik

Meteorológiai megfigyelések és előrejelzések több, mint 4000 repülőtéren (METAR és TAF jelentéseket).

A térképen piros és sárga pontok jelzik az elérhető meteorológiai állomásokat.

Mozgassa az egeret a pont fölött, hogy megjelenjen az állomás neve.

Azután kattintson az időjárási megfigyelések és előrejelzések megtekintéséhez.

A térkép megváltoztatása: kattintson a fekete keresztel jelölt zöld gombra ráközelítéshez, a vonallal jelölt zöld gombra távolításhoz, vagy a zöld nyilakra a szomszédos térképek eléréséhez.


METAR-TAF: